sensor_id;sensor_type;location;lat;lon;timestamp;P1;durP1;ratioP1;P2;durP2;ratioP2
68942;SDS011;60852;52.190;4.422;2023-05-07T00:00:16;35.25;;;35.25;;
68942;SDS011;60852;52.190;4.422;2023-05-07T00:02:43;35.49;;;35.49;;
68942;SDS011;60852;52.190;4.422;2023-05-07T00:05:09;34.25;;;34.25;;
68942;SDS011;60852;52.190;4.422;2023-05-07T00:07:35;33.90;;;33.84;;
68942;SDS011;60852;52.190;4.422;2023-05-07T00:10:01;33.45;;;33.45;;
68942;SDS011;60852;52.190;4.422;2023-05-07T00:12:27;33.39;;;33.36;;
68942;SDS011;60852;52.190;4.422;2023-05-07T00:14:52;31.33;;;31.33;;
68942;SDS011;60852;52.190;4.422;2023-05-07T00:17:18;29.79;;;29.79;;
68942;SDS011;60852;52.190;4.422;2023-05-07T00:19:43;29.21;;;29.21;;
68942;SDS011;60852;52.190;4.422;2023-05-07T00:22:09;30.30;;;30.29;;
68942;SDS011;60852;52.190;4.422;2023-05-07T00:24:35;30.26;;;30.26;;
68942;SDS011;60852;52.190;4.422;2023-05-07T00:27:00;28.50;;;28.50;;
68942;SDS011;60852;52.190;4.422;2023-05-07T00:29:26;29.21;;;29.21;;
68942;SDS011;60852;52.190;4.422;2023-05-07T00:31:51;29.85;;;29.85;;
68942;SDS011;60852;52.190;4.422;2023-05-07T00:34:19;29.37;;;29.37;;
68942;SDS011;60852;52.190;4.422;2023-05-07T00:36:45;32.80;;;32.80;;
68942;SDS011;60852;52.190;4.422;2023-05-07T00:39:10;33.70;;;33.70;;
68942;SDS011;60852;52.190;4.422;2023-05-07T00:41:36;32.30;;;32.30;;
68942;SDS011;60852;52.190;4.422;2023-05-07T00:44:02;31.89;;;31.88;;
68942;SDS011;60852;52.190;4.422;2023-05-07T00:46:28;31.49;;;31.46;;
68942;SDS011;60852;52.190;4.422;2023-05-07T00:48:55;31.76;;;31.76;;
68942;SDS011;60852;52.190;4.422;2023-05-07T00:51:22;33.12;;;33.12;;
68942;SDS011;60852;52.190;4.422;2023-05-07T00:53:51;33.74;;;33.73;;
68942;SDS011;60852;52.190;4.422;2023-05-07T00:56:17;34.91;;;34.74;;
68942;SDS011;60852;52.190;4.422;2023-05-07T00:58:43;34.45;;;34.28;;
68942;SDS011;60852;52.190;4.422;2023-05-07T01:01:09;34.75;;;34.69;;
68942;SDS011;60852;52.190;4.422;2023-05-07T01:03:34;35.87;;;35.87;;
68942;SDS011;60852;52.190;4.422;2023-05-07T01:06:00;36.65;;;36.65;;
68942;SDS011;60852;52.190;4.422;2023-05-07T01:08:28;37.41;;;37.37;;
68942;SDS011;60852;52.190;4.422;2023-05-07T01:10:56;38.80;;;38.41;;
68942;SDS011;60852;52.190;4.422;2023-05-07T01:13:22;39.32;;;39.18;;
68942;SDS011;60852;52.190;4.422;2023-05-07T01:15:49;36.76;;;36.74;;
68942;SDS011;60852;52.190;4.422;2023-05-07T01:18:15;37.25;;;37.22;;
68942;SDS011;60852;52.190;4.422;2023-05-07T01:20:41;36.74;;;36.52;;
68942;SDS011;60852;52.190;4.422;2023-05-07T01:23:07;36.26;;;36.25;;
68942;SDS011;60852;52.190;4.422;2023-05-07T01:25:36;36.14;;;36.07;;
68942;SDS011;60852;52.190;4.422;2023-05-07T01:28:01;36.52;;;36.16;;
68942;SDS011;60852;52.190;4.422;2023-05-07T01:30:27;36.30;;;36.18;;
68942;SDS011;60852;52.190;4.422;2023-05-07T01:32:58;36.13;;;36.01;;
68942;SDS011;60852;52.190;4.422;2023-05-07T01:35:34;35.95;;;35.74;;
68942;SDS011;60852;52.190;4.422;2023-05-07T01:38:04;37.19;;;37.19;;
68942;SDS011;60852;52.190;4.422;2023-05-07T01:40:31;38.20;;;38.10;;
68942;SDS011;60852;52.190;4.422;2023-05-07T01:42:56;38.57;;;38.57;;
68942;SDS011;60852;52.190;4.422;2023-05-07T01:45:22;40.42;;;40.11;;
68942;SDS011;60852;52.190;4.422;2023-05-07T01:47:49;41.28;;;40.64;;
68942;SDS011;60852;52.190;4.422;2023-05-07T01:50:16;42.21;;;40.96;;
68942;SDS011;60852;52.190;4.422;2023-05-07T01:52:45;40.60;;;40.20;;
68942;SDS011;60852;52.190;4.422;2023-05-07T01:55:12;39.58;;;39.29;;
68942;SDS011;60852;52.190;4.422;2023-05-07T01:57:38;38.18;;;37.83;;
68942;SDS011;60852;52.190;4.422;2023-05-07T02:00:04;39.40;;;38.86;;
68942;SDS011;60852;52.190;4.422;2023-05-07T02:02:30;38.38;;;37.82;;
68942;SDS011;60852;52.190;4.422;2023-05-07T02:04:56;39.60;;;38.34;;
68942;SDS011;60852;52.190;4.422;2023-05-07T02:07:21;37.64;;;37.29;;
68942;SDS011;60852;52.190;4.422;2023-05-07T02:09:47;36.74;;;36.35;;
68942;SDS011;60852;52.190;4.422;2023-05-07T02:12:12;36.56;;;36.02;;
68942;SDS011;60852;52.190;4.422;2023-05-07T02:14:38;35.46;;;35.18;;
68942;SDS011;60852;52.190;4.422;2023-05-07T02:17:03;35.65;;;35.32;;
68942;SDS011;60852;52.190;4.422;2023-05-07T02:19:29;35.08;;;34.47;;
68942;SDS011;60852;52.190;4.422;2023-05-07T02:21:54;34.99;;;34.42;;
68942;SDS011;60852;52.190;4.422;2023-05-07T02:24:20;33.26;;;32.85;;
68942;SDS011;60852;52.190;4.422;2023-05-07T02:26:45;34.41;;;33.70;;
68942;SDS011;60852;52.190;4.422;2023-05-07T02:29:11;33.20;;;32.93;;
68942;SDS011;60852;52.190;4.422;2023-05-07T02:31:36;34.01;;;33.27;;
68942;SDS011;60852;52.190;4.422;2023-05-07T02:34:02;33.13;;;32.84;;
68942;SDS011;60852;52.190;4.422;2023-05-07T02:36:27;32.30;;;31.75;;
68942;SDS011;60852;52.190;4.422;2023-05-07T02:38:53;33.06;;;32.61;;
68942;SDS011;60852;52.190;4.422;2023-05-07T02:41:18;31.88;;;31.70;;
68942;SDS011;60852;52.190;4.422;2023-05-07T02:43:44;31.28;;;31.23;;
68942;SDS011;60852;52.190;4.422;2023-05-07T02:46:09;30.72;;;30.66;;
68942;SDS011;60852;52.190;4.422;2023-05-07T02:48:35;30.57;;;30.57;;
68942;SDS011;60852;52.190;4.422;2023-05-07T02:51:00;30.20;;;30.17;;
68942;SDS011;60852;52.190;4.422;2023-05-07T02:53:27;30.21;;;30.04;;
68942;SDS011;60852;52.190;4.422;2023-05-07T02:55:53;29.96;;;29.96;;
68942;SDS011;60852;52.190;4.422;2023-05-07T02:58:19;29.92;;;29.92;;
68942;SDS011;60852;52.190;4.422;2023-05-07T03:00:45;29.93;;;29.87;;
68942;SDS011;60852;52.190;4.422;2023-05-07T03:03:10;29.59;;;29.49;;
68942;SDS011;60852;52.190;4.422;2023-05-07T03:05:36;29.33;;;29.26;;
68942;SDS011;60852;52.190;4.422;2023-05-07T03:08:01;28.72;;;28.70;;
68942;SDS011;60852;52.190;4.422;2023-05-07T03:10:27;29.05;;;29.04;;
68942;SDS011;60852;52.190;4.422;2023-05-07T03:12:53;29.51;;;29.51;;
68942;SDS011;60852;52.190;4.422;2023-05-07T03:15:18;29.35;;;29.35;;
68942;SDS011;60852;52.190;4.422;2023-05-07T03:17:44;28.62;;;28.60;;
68942;SDS011;60852;52.190;4.422;2023-05-07T03:20:10;28.40;;;28.39;;
68942;SDS011;60852;52.190;4.422;2023-05-07T03:22:35;28.62;;;28.62;;
68942;SDS011;60852;52.190;4.422;2023-05-07T03:25:01;28.49;;;28.37;;
68942;SDS011;60852;52.190;4.422;2023-05-07T03:27:27;28.66;;;28.56;;
68942;SDS011;60852;52.190;4.422;2023-05-07T03:29:52;28.39;;;28.33;;
68942;SDS011;60852;52.190;4.422;2023-05-07T03:32:17;28.38;;;28.32;;
68942;SDS011;60852;52.190;4.422;2023-05-07T03:34:43;27.27;;;27.27;;
68942;SDS011;60852;52.190;4.422;2023-05-07T03:37:08;27.71;;;27.71;;
68942;SDS011;60852;52.190;4.422;2023-05-07T03:39:34;28.07;;;28.07;;
68942;SDS011;60852;52.190;4.422;2023-05-07T03:42:00;27.79;;;27.79;;
68942;SDS011;60852;52.190;4.422;2023-05-07T03:44:26;27.32;;;27.32;;
68942;SDS011;60852;52.190;4.422;2023-05-07T03:46:51;27.47;;;27.47;;
68942;SDS011;60852;52.190;4.422;2023-05-07T03:49:17;27.24;;;27.24;;
68942;SDS011;60852;52.190;4.422;2023-05-07T03:51:42;26.80;;;26.80;;
68942;SDS011;60852;52.190;4.422;2023-05-07T03:54:08;26.73;;;26.73;;
68942;SDS011;60852;52.190;4.422;2023-05-07T03:56:33;26.90;;;26.90;;
68942;SDS011;60852;52.190;4.422;2023-05-07T03:58:59;26.28;;;26.28;;
68942;SDS011;60852;52.190;4.422;2023-05-07T04:01:25;27.24;;;27.24;;
68942;SDS011;60852;52.190;4.422;2023-05-07T04:03:50;26.04;;;26.04;;
68942;SDS011;60852;52.190;4.422;2023-05-07T04:06:16;25.67;;;25.67;;
68942;SDS011;60852;52.190;4.422;2023-05-07T04:08:44;25.95;;;25.89;;
68942;SDS011;60852;52.190;4.422;2023-05-07T04:11:10;25.45;;;25.45;;
68942;SDS011;60852;52.190;4.422;2023-05-07T04:13:35;26.23;;;26.23;;
68942;SDS011;60852;52.190;4.422;2023-05-07T04:16:01;25.34;;;25.34;;
68942;SDS011;60852;52.190;4.422;2023-05-07T04:18:28;25.80;;;25.80;;
68942;SDS011;60852;52.190;4.422;2023-05-07T04:20:54;25.61;;;25.61;;
68942;SDS011;60852;52.190;4.422;2023-05-07T04:23:19;25.51;;;25.51;;
68942;SDS011;60852;52.190;4.422;2023-05-07T04:25:45;24.93;;;24.93;;
68942;SDS011;60852;52.190;4.422;2023-05-07T04:28:11;24.73;;;24.73;;
68942;SDS011;60852;52.190;4.422;2023-05-07T04:30:37;24.36;;;24.36;;
68942;SDS011;60852;52.190;4.422;2023-05-07T04:33:03;24.84;;;24.84;;
68942;SDS011;60852;52.190;4.422;2023-05-07T04:35:28;24.18;;;24.18;;
68942;SDS011;60852;52.190;4.422;2023-05-07T04:37:54;24.34;;;24.34;;
68942;SDS011;60852;52.190;4.422;2023-05-07T04:40:20;24.55;;;24.55;;
68942;SDS011;60852;52.190;4.422;2023-05-07T04:42:45;24.46;;;24.46;;
68942;SDS011;60852;52.190;4.422;2023-05-07T04:45:11;24.14;;;24.14;;
68942;SDS011;60852;52.190;4.422;2023-05-07T04:47:37;23.35;;;23.35;;
68942;SDS011;60852;52.190;4.422;2023-05-07T04:50:03;22.88;;;22.88;;
68942;SDS011;60852;52.190;4.422;2023-05-07T04:52:29;23.22;;;23.22;;
68942;SDS011;60852;52.190;4.422;2023-05-07T04:54:55;23.14;;;23.14;;
68942;SDS011;60852;52.190;4.422;2023-05-07T04:57:20;22.88;;;22.88;;
68942;SDS011;60852;52.190;4.422;2023-05-07T04:59:46;23.38;;;23.38;;
68942;SDS011;60852;52.190;4.422;2023-05-07T05:02:11;22.87;;;22.87;;
68942;SDS011;60852;52.190;4.422;2023-05-07T05:04:37;22.90;;;22.90;;
68942;SDS011;60852;52.190;4.422;2023-05-07T05:07:02;22.64;;;22.64;;
68942;SDS011;60852;52.190;4.422;2023-05-07T05:09:31;22.81;;;22.81;;
68942;SDS011;60852;52.190;4.422;2023-05-07T05:11:56;22.36;;;22.36;;
68942;SDS011;60852;52.190;4.422;2023-05-07T05:14:22;21.87;;;21.87;;
68942;SDS011;60852;52.190;4.422;2023-05-07T05:16:47;21.98;;;21.98;;
68942;SDS011;60852;52.190;4.422;2023-05-07T05:19:13;22.21;;;22.21;;
68942;SDS011;60852;52.190;4.422;2023-05-07T05:21:38;22.12;;;22.12;;
68942;SDS011;60852;52.190;4.422;2023-05-07T05:24:04;21.56;;;21.56;;
68942;SDS011;60852;52.190;4.422;2023-05-07T05:26:29;21.64;;;21.64;;
68942;SDS011;60852;52.190;4.422;2023-05-07T05:28:55;21.49;;;21.49;;
68942;SDS011;60852;52.190;4.422;2023-05-07T05:31:20;21.83;;;21.83;;
68942;SDS011;60852;52.190;4.422;2023-05-07T05:33:46;21.43;;;21.43;;
68942;SDS011;60852;52.190;4.422;2023-05-07T05:36:12;21.71;;;21.71;;
68942;SDS011;60852;52.190;4.422;2023-05-07T05:38:38;21.14;;;21.14;;
68942;SDS011;60852;52.190;4.422;2023-05-07T05:41:04;20.70;;;20.70;;
68942;SDS011;60852;52.190;4.422;2023-05-07T05:43:30;20.57;;;20.57;;
68942;SDS011;60852;52.190;4.422;2023-05-07T05:45:56;20.03;;;20.03;;
68942;SDS011;60852;52.190;4.422;2023-05-07T05:48:22;19.84;;;19.84;;
68942;SDS011;60852;52.190;4.422;2023-05-07T05:50:47;20.00;;;20.00;;
68942;SDS011;60852;52.190;4.422;2023-05-07T05:53:13;20.26;;;20.26;;
68942;SDS011;60852;52.190;4.422;2023-05-07T05:55:38;20.32;;;20.32;;
68942;SDS011;60852;52.190;4.422;2023-05-07T05:58:04;20.63;;;20.63;;
68942;SDS011;60852;52.190;4.422;2023-05-07T06:00:30;21.10;;;21.10;;
68942;SDS011;60852;52.190;4.422;2023-05-07T06:02:55;21.14;;;21.14;;
68942;SDS011;60852;52.190;4.422;2023-05-07T06:05:21;21.15;;;21.14;;
68942;SDS011;60852;52.190;4.422;2023-05-07T06:07:46;21.16;;;21.16;;
68942;SDS011;60852;52.190;4.422;2023-05-07T06:10:12;20.77;;;20.77;;
68942;SDS011;60852;52.190;4.422;2023-05-07T06:12:38;20.75;;;20.75;;
68942;SDS011;60852;52.190;4.422;2023-05-07T06:15:03;21.11;;;21.11;;
68942;SDS011;60852;52.190;4.422;2023-05-07T06:17:29;21.55;;;21.55;;
68942;SDS011;60852;52.190;4.422;2023-05-07T06:19:55;21.56;;;21.56;;
68942;SDS011;60852;52.190;4.422;2023-05-07T06:22:20;21.39;;;21.39;;
68942;SDS011;60852;52.190;4.422;2023-05-07T06:24:46;21.94;;;21.94;;
68942;SDS011;60852;52.190;4.422;2023-05-07T06:27:12;22.08;;;22.08;;
68942;SDS011;60852;52.190;4.422;2023-05-07T06:29:38;21.88;;;21.88;;
68942;SDS011;60852;52.190;4.422;2023-05-07T06:32:07;22.24;;;22.24;;
68942;SDS011;60852;52.190;4.422;2023-05-07T06:34:36;22.32;;;22.32;;
68942;SDS011;60852;52.190;4.422;2023-05-07T06:37:02;22.53;;;22.53;;
68942;SDS011;60852;52.190;4.422;2023-05-07T06:39:28;23.31;;;23.31;;
68942;SDS011;60852;52.190;4.422;2023-05-07T06:41:53;22.66;;;22.66;;
68942;SDS011;60852;52.190;4.422;2023-05-07T06:44:19;22.14;;;22.14;;
68942;SDS011;60852;52.190;4.422;2023-05-07T06:46:44;22.70;;;22.70;;
68942;SDS011;60852;52.190;4.422;2023-05-07T06:49:10;23.61;;;23.61;;
68942;SDS011;60852;52.190;4.422;2023-05-07T06:51:37;24.45;;;24.45;;
68942;SDS011;60852;52.190;4.422;2023-05-07T06:54:02;24.52;;;24.52;;
68942;SDS011;60852;52.190;4.422;2023-05-07T06:56:29;24.58;;;24.58;;
68942;SDS011;60852;52.190;4.422;2023-05-07T06:58:55;24.98;;;24.98;;
68942;SDS011;60852;52.190;4.422;2023-05-07T07:01:21;23.92;;;23.92;;
68942;SDS011;60852;52.190;4.422;2023-05-07T07:03:46;25.53;;;25.53;;
68942;SDS011;60852;52.190;4.422;2023-05-07T07:06:12;24.14;;;24.14;;
68942;SDS011;60852;52.190;4.422;2023-05-07T07:08:38;24.00;;;24.00;;
68942;SDS011;60852;52.190;4.422;2023-05-07T07:11:04;24.24;;;24.24;;
68942;SDS011;60852;52.190;4.422;2023-05-07T07:13:30;24.43;;;24.43;;
68942;SDS011;60852;52.190;4.422;2023-05-07T07:15:56;25.07;;;25.07;;
68942;SDS011;60852;52.190;4.422;2023-05-07T07:18:21;25.59;;;25.59;;
68942;SDS011;60852;52.190;4.422;2023-05-07T07:20:47;25.27;;;25.27;;
68942;SDS011;60852;52.190;4.422;2023-05-07T07:23:12;25.16;;;25.16;;
68942;SDS011;60852;52.190;4.422;2023-05-07T07:25:38;25.51;;;25.51;;
68942;SDS011;60852;52.190;4.422;2023-05-07T07:28:05;24.34;;;24.34;;
68942;SDS011;60852;52.190;4.422;2023-05-07T07:30:31;25.03;;;25.03;;
68942;SDS011;60852;52.190;4.422;2023-05-07T07:32:56;24.79;;;24.79;;
68942;SDS011;60852;52.190;4.422;2023-05-07T07:35:27;23.91;;;23.91;;
68942;SDS011;60852;52.190;4.422;2023-05-07T07:37:53;22.58;;;22.58;;
68942;SDS011;60852;52.190;4.422;2023-05-07T07:40:19;23.13;;;23.13;;
68942;SDS011;60852;52.190;4.422;2023-05-07T07:42:44;23.25;;;23.25;;
68942;SDS011;60852;52.190;4.422;2023-05-07T07:45:10;23.54;;;23.54;;
68942;SDS011;60852;52.190;4.422;2023-05-07T07:47:35;23.82;;;23.82;;
68942;SDS011;60852;52.190;4.422;2023-05-07T07:50:01;23.06;;;23.06;;
68942;SDS011;60852;52.190;4.422;2023-05-07T07:52:26;22.82;;;22.82;;
68942;SDS011;60852;52.190;4.422;2023-05-07T07:54:52;22.55;;;22.55;;
68942;SDS011;60852;52.190;4.422;2023-05-07T07:57:17;22.43;;;22.43;;
68942;SDS011;60852;52.190;4.422;2023-05-07T07:59:43;21.69;;;21.69;;
68942;SDS011;60852;52.190;4.422;2023-05-07T08:02:08;21.42;;;21.42;;
68942;SDS011;60852;52.190;4.422;2023-05-07T08:04:34;21.10;;;21.10;;
68942;SDS011;60852;52.190;4.422;2023-05-07T08:07:00;21.11;;;21.11;;
68942;SDS011;60852;52.190;4.422;2023-05-07T08:09:25;20.93;;;20.93;;
68942;SDS011;60852;52.190;4.422;2023-05-07T08:11:51;20.48;;;20.48;;
68942;SDS011;60852;52.190;4.422;2023-05-07T08:14:17;20.65;;;20.65;;
68942;SDS011;60852;52.190;4.422;2023-05-07T08:16:42;19.44;;;19.44;;
68942;SDS011;60852;52.190;4.422;2023-05-07T08:19:08;19.97;;;19.97;;
68942;SDS011;60852;52.190;4.422;2023-05-07T08:21:33;17.41;;;17.41;;
68942;SDS011;60852;52.190;4.422;2023-05-07T08:23:59;15.86;;;15.86;;
68942;SDS011;60852;52.190;4.422;2023-05-07T08:26:24;15.80;;;15.80;;
68942;SDS011;60852;52.190;4.422;2023-05-07T08:28:50;15.73;;;15.73;;
68942;SDS011;60852;52.190;4.422;2023-05-07T08:31:15;15.31;;;15.31;;
68942;SDS011;60852;52.190;4.422;2023-05-07T08:33:41;14.64;;;14.64;;
68942;SDS011;60852;52.190;4.422;2023-05-07T08:36:06;14.54;;;14.54;;
68942;SDS011;60852;52.190;4.422;2023-05-07T08:38:32;13.24;;;13.24;;
68942;SDS011;60852;52.190;4.422;2023-05-07T08:40:57;11.11;;;11.11;;
68942;SDS011;60852;52.190;4.422;2023-05-07T08:43:24;11.18;;;11.18;;
68942;SDS011;60852;52.190;4.422;2023-05-07T08:45:53;10.00;;;10.00;;
68942;SDS011;60852;52.190;4.422;2023-05-07T08:48:24;9.93;;;9.93;;
68942;SDS011;60852;52.190;4.422;2023-05-07T08:50:51;9.91;;;9.91;;
68942;SDS011;60852;52.190;4.422;2023-05-07T08:53:17;10.22;;;10.22;;
68942;SDS011;60852;52.190;4.422;2023-05-07T08:55:43;11.13;;;11.13;;
68942;SDS011;60852;52.190;4.422;2023-05-07T08:58:08;12.42;;;12.42;;
68942;SDS011;60852;52.190;4.422;2023-05-07T09:00:34;12.17;;;12.17;;
68942;SDS011;60852;52.190;4.422;2023-05-07T09:03:02;12.02;;;12.02;;
68942;SDS011;60852;52.190;4.422;2023-05-07T09:05:27;12.03;;;12.03;;
68942;SDS011;60852;52.190;4.422;2023-05-07T09:07:53;12.53;;;12.53;;
68942;SDS011;60852;52.190;4.422;2023-05-07T09:10:20;11.63;;;11.63;;
68942;SDS011;60852;52.190;4.422;2023-05-07T09:12:46;9.69;;;9.69;;
68942;SDS011;60852;52.190;4.422;2023-05-07T09:15:12;8.59;;;8.59;;
68942;SDS011;60852;52.190;4.422;2023-05-07T09:17:37;7.26;;;7.26;;
68942;SDS011;60852;52.190;4.422;2023-05-07T09:20:03;7.39;;;7.39;;
68942;SDS011;60852;52.190;4.422;2023-05-07T09:22:33;7.44;;;7.44;;
68942;SDS011;60852;52.190;4.422;2023-05-07T09:25:02;6.03;;;6.03;;
68942;SDS011;60852;52.190;4.422;2023-05-07T09:27:27;4.94;;;4.94;;
68942;SDS011;60852;52.190;4.422;2023-05-07T09:29:53;5.26;;;5.26;;
68942;SDS011;60852;52.190;4.422;2023-05-07T09:32:18;5.69;;;5.69;;
68942;SDS011;60852;52.190;4.422;2023-05-07T09:34:44;5.52;;;5.52;;
68942;SDS011;60852;52.190;4.422;2023-05-07T09:37:10;5.61;;;5.61;;
68942;SDS011;60852;52.190;4.422;2023-05-07T09:39:41;6.51;;;6.51;;
68942;SDS011;60852;52.190;4.422;2023-05-07T09:42:11;6.90;;;6.90;;
68942;SDS011;60852;52.190;4.422;2023-05-07T09:44:37;6.68;;;6.68;;
68942;SDS011;60852;52.190;4.422;2023-05-07T09:47:04;6.16;;;6.16;;
68942;SDS011;60852;52.190;4.422;2023-05-07T09:49:32;6.41;;;6.41;;
68942;SDS011;60852;52.190;4.422;2023-05-07T09:52:00;6.35;;;6.35;;
68942;SDS011;60852;52.190;4.422;2023-05-07T09:54:27;6.33;;;6.33;;
68942;SDS011;60852;52.190;4.422;2023-05-07T09:56:55;6.57;;;6.57;;
68942;SDS011;60852;52.190;4.422;2023-05-07T09:59:22;7.33;;;7.33;;
68942;SDS011;60852;52.190;4.422;2023-05-07T10:01:49;6.86;;;6.86;;
68942;SDS011;60852;52.190;4.422;2023-05-07T10:04:18;7.72;;;7.72;;
68942;SDS011;60852;52.190;4.422;2023-05-07T10:06:45;8.86;;;8.86;;
68942;SDS011;60852;52.190;4.422;2023-05-07T10:09:12;8.91;;;8.91;;
68942;SDS011;60852;52.190;4.422;2023-05-07T10:11:40;9.46;;;9.46;;
68942;SDS011;60852;52.190;4.422;2023-05-07T10:14:06;9.67;;;9.67;;
68942;SDS011;60852;52.190;4.422;2023-05-07T10:16:32;10.39;;;10.39;;
68942;SDS011;60852;52.190;4.422;2023-05-07T10:19:04;10.45;;;10.45;;
68942;SDS011;60852;52.190;4.422;2023-05-07T10:21:32;10.93;;;10.93;;
68942;SDS011;60852;52.190;4.422;2023-05-07T10:24:06;10.30;;;10.30;;
68942;SDS011;60852;52.190;4.422;2023-05-07T10:26:43;9.74;;;9.74;;
68942;SDS011;60852;52.190;4.422;2023-05-07T10:35:03;9.53;;;9.53;;
68942;SDS011;60852;52.190;4.422;2023-05-07T10:37:35;9.98;;;9.98;;
68942;SDS011;60852;52.190;4.422;2023-05-07T10:40:02;11.82;;;11.82;;
68942;SDS011;60852;52.190;4.422;2023-05-07T10:42:28;12.59;;;12.59;;
68942;SDS011;60852;52.190;4.422;2023-05-07T10:44:53;13.48;;;13.48;;
68942;SDS011;60852;52.190;4.422;2023-05-07T10:47:19;14.21;;;14.21;;
68942;SDS011;60852;52.190;4.422;2023-05-07T10:52:23;12.87;;;12.87;;
68942;SDS011;60852;52.190;4.422;2023-05-07T10:57:50;11.14;;;11.14;;
68942;SDS011;60852;52.190;4.422;2023-05-07T11:05:26;9.19;;;9.19;;
68942;SDS011;60852;52.190;4.422;2023-05-07T11:07:54;8.89;;;8.89;;
68942;SDS011;60852;52.190;4.422;2023-05-07T11:10:20;9.57;;;9.57;;
68942;SDS011;60852;52.190;4.422;2023-05-07T11:12:47;10.97;;;10.97;;
68942;SDS011;60852;52.190;4.422;2023-05-07T11:15:12;11.48;;;11.48;;
68942;SDS011;60852;52.190;4.422;2023-05-07T11:17:52;9.91;;;9.91;;
68942;SDS011;60852;52.190;4.422;2023-05-07T11:20:19;9.76;;;9.76;;
68942;SDS011;60852;52.190;4.422;2023-05-07T11:22:45;9.77;;;9.77;;
68942;SDS011;60852;52.190;4.422;2023-05-07T11:25:14;10.40;;;10.40;;
68942;SDS011;60852;52.190;4.422;2023-05-07T11:27:44;10.68;;;10.68;;
68942;SDS011;60852;52.190;4.422;2023-05-07T11:30:10;9.76;;;9.76;;
68942;SDS011;60852;52.190;4.422;2023-05-07T11:32:42;8.98;;;8.98;;
68942;SDS011;60852;52.190;4.422;2023-05-07T11:35:08;8.21;;;8.21;;
68942;SDS011;60852;52.190;4.422;2023-05-07T11:37:34;7.96;;;7.96;;
68942;SDS011;60852;52.190;4.422;2023-05-07T11:40:08;9.53;;;9.53;;
68942;SDS011;60852;52.190;4.422;2023-05-07T11:42:36;10.62;;;10.62;;
68942;SDS011;60852;52.190;4.422;2023-05-07T11:45:03;16.83;;;16.83;;
68942;SDS011;60852;52.190;4.422;2023-05-07T11:47:30;19.69;;;19.69;;
68942;SDS011;60852;52.190;4.422;2023-05-07T11:49:57;20.10;;;20.10;;
68942;SDS011;60852;52.190;4.422;2023-05-07T11:52:29;20.46;;;20.46;;
68942;SDS011;60852;52.190;4.422;2023-05-07T11:54:55;20.13;;;20.13;;
68942;SDS011;60852;52.190;4.422;2023-05-07T11:57:22;20.20;;;20.20;;
68942;SDS011;60852;52.190;4.422;2023-05-07T11:59:55;20.30;;;20.30;;
68942;SDS011;60852;52.190;4.422;2023-05-07T12:02:27;20.45;;;20.45;;
68942;SDS011;60852;52.190;4.422;2023-05-07T12:04:53;21.01;;;21.01;;
68942;SDS011;60852;52.190;4.422;2023-05-07T12:07:20;21.40;;;21.40;;
68942;SDS011;60852;52.190;4.422;2023-05-07T12:09:46;20.81;;;20.81;;
68942;SDS011;60852;52.190;4.422;2023-05-07T12:12:12;21.39;;;21.39;;
68942;SDS011;60852;52.190;4.422;2023-05-07T12:14:41;21.25;;;21.25;;
68942;SDS011;60852;52.190;4.422;2023-05-07T12:17:09;22.71;;;22.71;;
68942;SDS011;60852;52.190;4.422;2023-05-07T12:19:36;23.14;;;23.14;;
68942;SDS011;60852;52.190;4.422;2023-05-07T12:22:04;22.31;;;22.31;;
68942;SDS011;60852;52.190;4.422;2023-05-07T12:24:48;23.25;;;23.25;;
68942;SDS011;60852;52.190;4.422;2023-05-07T12:27:23;23.02;;;23.02;;
68942;SDS011;60852;52.190;4.422;2023-05-07T12:29:49;22.54;;;22.54;;
68942;SDS011;60852;52.190;4.422;2023-05-07T12:32:19;24.71;;;24.71;;
68942;SDS011;60852;52.190;4.422;2023-05-07T12:34:46;27.63;;;27.63;;
68942;SDS011;60852;52.190;4.422;2023-05-07T12:37:15;26.99;;;26.99;;
68942;SDS011;60852;52.190;4.422;2023-05-07T12:39:49;28.65;;;28.64;;
68942;SDS011;60852;52.190;4.422;2023-05-07T12:42:35;28.53;;;28.53;;
68942;SDS011;60852;52.190;4.422;2023-05-07T12:45:11;28.32;;;28.32;;
68942;SDS011;60852;52.190;4.422;2023-05-07T12:47:37;28.91;;;28.91;;
68942;SDS011;60852;52.190;4.422;2023-05-07T12:50:04;28.36;;;28.36;;
68942;SDS011;60852;52.190;4.422;2023-05-07T12:52:31;28.30;;;28.30;;
68942;SDS011;60852;52.190;4.422;2023-05-07T12:55:03;30.25;;;30.25;;
68942;SDS011;60852;52.190;4.422;2023-05-07T12:57:30;29.77;;;29.65;;
68942;SDS011;60852;52.190;4.422;2023-05-07T12:59:57;27.80;;;27.80;;
68942;SDS011;60852;52.190;4.422;2023-05-07T13:02:31;27.17;;;27.17;;
68942;SDS011;60852;52.190;4.422;2023-05-07T13:05:02;28.28;;;28.28;;
68942;SDS011;60852;52.190;4.422;2023-05-07T13:07:27;28.51;;;28.51;;
68942;SDS011;60852;52.190;4.422;2023-05-07T13:09:53;27.66;;;27.66;;
68942;SDS011;60852;52.190;4.422;2023-05-07T13:12:18;26.68;;;26.68;;
68942;SDS011;60852;52.190;4.422;2023-05-07T13:14:44;25.86;;;25.86;;
68942;SDS011;60852;52.190;4.422;2023-05-07T13:17:09;26.12;;;26.12;;
68942;SDS011;60852;52.190;4.422;2023-05-07T13:19:35;27.19;;;27.19;;
68942;SDS011;60852;52.190;4.422;2023-05-07T13:22:02;29.29;;;29.26;;
68942;SDS011;60852;52.190;4.422;2023-05-07T13:24:28;30.87;;;30.87;;
68942;SDS011;60852;52.190;4.422;2023-05-07T13:26:54;30.88;;;30.88;;
68942;SDS011;60852;52.190;4.422;2023-05-07T13:29:20;30.71;;;30.71;;
68942;SDS011;60852;52.190;4.422;2023-05-07T13:31:50;30.23;;;30.23;;
68942;SDS011;60852;52.190;4.422;2023-05-07T13:34:15;30.06;;;30.06;;
68942;SDS011;60852;52.190;4.422;2023-05-07T13:36:41;31.27;;;31.27;;
68942;SDS011;60852;52.190;4.422;2023-05-07T13:39:07;32.77;;;32.77;;
68942;SDS011;60852;52.190;4.422;2023-05-07T13:41:32;32.83;;;32.83;;
68942;SDS011;60852;52.190;4.422;2023-05-07T13:43:58;34.12;;;34.12;;
68942;SDS011;60852;52.190;4.422;2023-05-07T13:46:23;35.20;;;35.20;;
68942;SDS011;60852;52.190;4.422;2023-05-07T13:48:49;35.61;;;35.61;;
68942;SDS011;60852;52.190;4.422;2023-05-07T13:51:16;36.44;;;36.44;;
68942;SDS011;60852;52.190;4.422;2023-05-07T13:53:42;37.05;;;37.05;;
68942;SDS011;60852;52.190;4.422;2023-05-07T13:56:07;36.92;;;36.89;;
68942;SDS011;60852;52.190;4.422;2023-05-07T13:58:33;38.20;;;38.19;;
68942;SDS011;60852;52.190;4.422;2023-05-07T14:00:58;38.52;;;38.52;;
68942;SDS011;60852;52.190;4.422;2023-05-07T14:03:23;37.50;;;37.50;;
68942;SDS011;60852;52.190;4.422;2023-05-07T14:05:49;37.65;;;37.65;;
68942;SDS011;60852;52.190;4.422;2023-05-07T14:08:14;37.67;;;37.67;;
68942;SDS011;60852;52.190;4.422;2023-05-07T14:10:40;38.22;;;38.22;;
68942;SDS011;60852;52.190;4.422;2023-05-07T14:13:06;37.95;;;37.95;;
68942;SDS011;60852;52.190;4.422;2023-05-07T14:15:31;38.37;;;38.37;;
68942;SDS011;60852;52.190;4.422;2023-05-07T14:17:57;38.67;;;38.67;;
68942;SDS011;60852;52.190;4.422;2023-05-07T14:20:24;39.04;;;39.04;;
68942;SDS011;60852;52.190;4.422;2023-05-07T14:22:50;38.35;;;38.35;;
68942;SDS011;60852;52.190;4.422;2023-05-07T14:25:15;38.81;;;38.81;;
68942;SDS011;60852;52.190;4.422;2023-05-07T14:27:41;39.48;;;39.48;;
68942;SDS011;60852;52.190;4.422;2023-05-07T14:30:07;39.36;;;39.36;;
68942;SDS011;60852;52.190;4.422;2023-05-07T14:32:33;39.18;;;39.18;;
68942;SDS011;60852;52.190;4.422;2023-05-07T14:34:59;38.67;;;38.67;;